sensor_id;sensor_type;location;lat;lon;timestamp;P1;durP1;ratioP1;P2;durP2;ratioP2
32146;SDS011;32190;49.112;8.598;2023-02-15T00:00:09;7.93;;;5.22;;
32146;SDS011;32190;49.112;8.598;2023-02-15T00:06:01;10.05;;;6.25;;
32146;SDS011;32190;49.112;8.598;2023-02-15T00:11:52;6.63;;;4.50;;
32146;SDS011;32190;49.112;8.598;2023-02-15T00:17:42;7.93;;;5.15;;
32146;SDS011;32190;49.112;8.598;2023-02-15T00:23:33;6.90;;;4.93;;
32146;SDS011;32190;49.112;8.598;2023-02-15T00:29:24;5.57;;;4.15;;
32146;SDS011;32190;49.112;8.598;2023-02-15T00:35:15;4.57;;;3.65;;
32146;SDS011;32190;49.112;8.598;2023-02-15T00:41:08;5.15;;;3.85;;
32146;SDS011;32190;49.112;8.598;2023-02-15T00:47:02;5.45;;;4.07;;
32146;SDS011;32190;49.112;8.598;2023-02-15T00:52:53;5.05;;;3.47;;
32146;SDS011;32190;49.112;8.598;2023-02-15T00:58:43;6.95;;;4.55;;
32146;SDS011;32190;49.112;8.598;2023-02-15T01:04:34;5.75;;;4.57;;
32146;SDS011;32190;49.112;8.598;2023-02-15T01:10:26;6.72;;;4.55;;
32146;SDS011;32190;49.112;8.598;2023-02-15T01:16:17;4.50;;;4.03;;
32146;SDS011;32190;49.112;8.598;2023-02-15T01:22:08;4.05;;;3.60;;
32146;SDS011;32190;49.112;8.598;2023-02-15T01:27:59;5.88;;;3.85;;
32146;SDS011;32190;49.112;8.598;2023-02-15T01:33:50;5.28;;;3.60;;
32146;SDS011;32190;49.112;8.598;2023-02-15T01:39:41;5.47;;;4.22;;
32146;SDS011;32190;49.112;8.598;2023-02-15T01:45:32;4.43;;;3.55;;
32146;SDS011;32190;49.112;8.598;2023-02-15T01:51:23;4.88;;;3.75;;
32146;SDS011;32190;49.112;8.598;2023-02-15T01:57:18;4.50;;;3.67;;
32146;SDS011;32190;49.112;8.598;2023-02-15T02:03:12;3.58;;;2.70;;
32146;SDS011;32190;49.112;8.598;2023-02-15T02:09:03;4.80;;;4.30;;
32146;SDS011;32190;49.112;8.598;2023-02-15T02:14:54;4.80;;;3.55;;
32146;SDS011;32190;49.112;8.598;2023-02-15T02:39:49;3.75;;;2.97;;
32146;SDS011;32190;49.112;8.598;2023-02-15T02:46:02;4.03;;;3.05;;
32146;SDS011;32190;49.112;8.598;2023-02-15T02:52:00;3.42;;;3.13;;
32146;SDS011;32190;49.112;8.598;2023-02-15T02:57:55;3.00;;;2.70;;
32146;SDS011;32190;49.112;8.598;2023-02-15T03:04:02;3.63;;;3.03;;
32146;SDS011;32190;49.112;8.598;2023-02-15T03:10:00;3.70;;;3.17;;
32146;SDS011;32190;49.112;8.598;2023-02-15T03:15:53;3.17;;;2.80;;
32146;SDS011;32190;49.112;8.598;2023-02-15T03:22:05;3.33;;;3.03;;
32146;SDS011;32190;49.112;8.598;2023-02-15T03:28:03;3.60;;;2.80;;
32146;SDS011;32190;49.112;8.598;2023-02-15T03:34:00;3.70;;;3.10;;
32146;SDS011;32190;49.112;8.598;2023-02-15T03:40:02;2.97;;;2.35;;
32146;SDS011;32190;49.112;8.598;2023-02-15T03:46:22;3.20;;;2.50;;
32146;SDS011;32190;49.112;8.598;2023-02-15T03:52:35;3.15;;;2.72;;
32146;SDS011;32190;49.112;8.598;2023-02-15T03:58:27;2.58;;;2.38;;
32146;SDS011;32190;49.112;8.598;2023-02-15T04:04:36;2.72;;;2.50;;
32146;SDS011;32190;49.112;8.598;2023-02-15T04:10:28;2.63;;;2.40;;
32146;SDS011;32190;49.112;8.598;2023-02-15T04:16:37;2.88;;;2.30;;
32146;SDS011;32190;49.112;8.598;2023-02-15T04:22:28;2.95;;;2.67;;
32146;SDS011;32190;49.112;8.598;2023-02-15T04:28:37;3.55;;;2.72;;
32146;SDS011;32190;49.112;8.598;2023-02-15T04:34:28;2.30;;;2.13;;
32146;SDS011;32190;49.112;8.598;2023-02-15T04:40:18;2.53;;;2.13;;
32146;SDS011;32190;49.112;8.598;2023-02-15T04:46:09;2.83;;;2.63;;
32146;SDS011;32190;49.112;8.598;2023-02-15T04:52:00;2.30;;;2.10;;
32146;SDS011;32190;49.112;8.598;2023-02-15T04:57:50;2.50;;;2.25;;
32146;SDS011;32190;49.112;8.598;2023-02-15T05:03:41;2.20;;;2.00;;
32146;SDS011;32190;49.112;8.598;2023-02-15T05:09:31;3.55;;;2.20;;
32146;SDS011;32190;49.112;8.598;2023-02-15T05:15:22;3.42;;;2.00;;
32146;SDS011;32190;49.112;8.598;2023-02-15T05:21:12;3.20;;;2.50;;
32146;SDS011;32190;49.112;8.598;2023-02-15T05:27:07;2.60;;;2.30;;
32146;SDS011;32190;49.112;8.598;2023-02-15T05:33:19;2.75;;;2.17;;
32146;SDS011;32190;49.112;8.598;2023-02-15T05:39:10;3.13;;;2.40;;
32146;SDS011;32190;49.112;8.598;2023-02-15T05:45:00;2.60;;;2.28;;
32146;SDS011;32190;49.112;8.598;2023-02-15T05:51:10;3.08;;;2.67;;
32146;SDS011;32190;49.112;8.598;2023-02-15T05:57:03;2.95;;;2.35;;
32146;SDS011;32190;49.112;8.598;2023-02-15T06:02:54;2.47;;;2.28;;
32146;SDS011;32190;49.112;8.598;2023-02-15T06:08:44;2.92;;;2.38;;
32146;SDS011;32190;49.112;8.598;2023-02-15T06:14:35;2.40;;;2.20;;
32146;SDS011;32190;49.112;8.598;2023-02-15T06:20:26;2.72;;;2.45;;
32146;SDS011;32190;49.112;8.598;2023-02-15T06:26:16;3.42;;;3.13;;
32146;SDS011;32190;49.112;8.598;2023-02-15T06:32:07;2.40;;;2.20;;
32146;SDS011;32190;49.112;8.598;2023-02-15T06:37:57;2.83;;;2.50;;
32146;SDS011;32190;49.112;8.598;2023-02-15T06:43:48;2.78;;;2.42;;
32146;SDS011;32190;49.112;8.598;2023-02-15T06:49:39;2.63;;;2.08;;
32146;SDS011;32190;49.112;8.598;2023-02-15T06:55:29;3.90;;;2.03;;
32146;SDS011;32190;49.112;8.598;2023-02-15T07:01:20;3.33;;;2.67;;
32146;SDS011;32190;49.112;8.598;2023-02-15T07:07:11;2.47;;;2.05;;
32146;SDS011;32190;49.112;8.598;2023-02-15T07:13:02;2.45;;;2.22;;
32146;SDS011;32190;49.112;8.598;2023-02-15T07:18:52;2.97;;;2.55;;
32146;SDS011;32190;49.112;8.598;2023-02-15T07:24:43;3.28;;;2.67;;
32146;SDS011;32190;49.112;8.598;2023-02-15T07:30:33;2.90;;;2.35;;
32146;SDS011;32190;49.112;8.598;2023-02-15T07:36:25;3.72;;;3.17;;
32146;SDS011;32190;49.112;8.598;2023-02-15T07:42:16;3.28;;;2.65;;
32146;SDS011;32190;49.112;8.598;2023-02-15T07:48:07;4.10;;;2.88;;
32146;SDS011;32190;49.112;8.598;2023-02-15T07:53:58;2.97;;;2.67;;
32146;SDS011;32190;49.112;8.598;2023-02-15T07:59:49;2.40;;;2.20;;
32146;SDS011;32190;49.112;8.598;2023-02-15T08:05:40;2.58;;;2.38;;
32146;SDS011;32190;49.112;8.598;2023-02-15T08:11:33;4.03;;;3.63;;
32146;SDS011;32190;49.112;8.598;2023-02-15T08:17:30;3.10;;;2.70;;
32146;SDS011;32190;49.112;8.598;2023-02-15T08:23:21;3.92;;;3.20;;
32146;SDS011;32190;49.112;8.598;2023-02-15T08:29:12;4.10;;;3.17;;
32146;SDS011;32190;49.112;8.598;2023-02-15T08:35:03;5.20;;;3.65;;
32146;SDS011;32190;49.112;8.598;2023-02-15T08:40:54;3.83;;;2.90;;
32146;SDS011;32190;49.112;8.598;2023-02-15T08:46:45;3.38;;;2.80;;
32146;SDS011;32190;49.112;8.598;2023-02-15T08:52:36;3.22;;;2.42;;
32146;SDS011;32190;49.112;8.598;2023-02-15T08:58:27;3.22;;;2.13;;
32146;SDS011;32190;49.112;8.598;2023-02-15T09:04:19;2.97;;;2.45;;
32146;SDS011;32190;49.112;8.598;2023-02-15T09:10:10;3.60;;;2.50;;
32146;SDS011;32190;49.112;8.598;2023-02-15T09:16:01;3.00;;;2.70;;
32146;SDS011;32190;49.112;8.598;2023-02-15T09:21:53;2.95;;;2.63;;
32146;SDS011;32190;49.112;8.598;2023-02-15T09:27:43;3.45;;;2.53;;
32146;SDS011;32190;49.112;8.598;2023-02-15T09:33:34;4.22;;;3.50;;
32146;SDS011;32190;49.112;8.598;2023-02-15T09:39:26;2.95;;;2.38;;
32146;SDS011;32190;49.112;8.598;2023-02-15T09:45:30;4.68;;;3.50;;
32146;SDS011;32190;49.112;8.598;2023-02-15T09:57:37;3.28;;;2.60;;
32146;SDS011;32190;49.112;8.598;2023-02-15T10:10:35;3.75;;;3.33;;
32146;SDS011;32190;49.112;8.598;2023-02-15T10:29:08;3.72;;;2.75;;
32146;SDS011;32190;49.112;8.598;2023-02-15T10:35:17;3.58;;;2.78;;
32146;SDS011;32190;49.112;8.598;2023-02-15T10:41:17;4.53;;;2.95;;
32146;SDS011;32190;49.112;8.598;2023-02-15T10:47:29;3.10;;;2.63;;
32146;SDS011;32190;49.112;8.598;2023-02-15T10:53:45;3.63;;;2.90;;
32146;SDS011;32190;49.112;8.598;2023-02-15T11:06:09;5.07;;;3.80;;
32146;SDS011;32190;49.112;8.598;2023-02-15T11:12:03;4.15;;;3.10;;
32146;SDS011;32190;49.112;8.598;2023-02-15T11:18:13;3.55;;;3.05;;
32146;SDS011;32190;49.112;8.598;2023-02-15T11:24:12;3.53;;;3.22;;
32146;SDS011;32190;49.112;8.598;2023-02-15T11:36:14;3.75;;;3.25;;
32146;SDS011;32190;49.112;8.598;2023-02-15T11:42:15;3.65;;;3.20;;
32146;SDS011;32190;49.112;8.598;2023-02-15T11:48:10;4.07;;;3.67;;
32146;SDS011;32190;49.112;8.598;2023-02-15T11:54:02;3.78;;;3.08;;
32146;SDS011;32190;49.112;8.598;2023-02-15T11:59:56;3.08;;;2.78;;
32146;SDS011;32190;49.112;8.598;2023-02-15T12:06:01;3.63;;;3.17;;
32146;SDS011;32190;49.112;8.598;2023-02-15T12:11:54;3.50;;;2.70;;
32146;SDS011;32190;49.112;8.598;2023-02-15T12:18:21;3.83;;;2.75;;
32146;SDS011;32190;49.112;8.598;2023-02-15T12:24:26;3.30;;;3.00;;
32146;SDS011;32190;49.112;8.598;2023-02-15T12:30:21;3.67;;;2.80;;
32146;SDS011;32190;49.112;8.598;2023-02-15T12:42:16;4.45;;;3.55;;
32146;SDS011;32190;49.112;8.598;2023-02-15T12:48:14;4.88;;;3.92;;
32146;SDS011;32190;49.112;8.598;2023-02-15T12:54:17;5.28;;;4.05;;
32146;SDS011;32190;49.112;8.598;2023-02-15T13:06:10;4.65;;;4.10;;
32146;SDS011;32190;49.112;8.598;2023-02-15T13:12:15;4.78;;;3.85;;
32146;SDS011;32190;49.112;8.598;2023-02-15T13:18:11;4.85;;;3.75;;
32146;SDS011;32190;49.112;8.598;2023-02-15T13:30:23;4.50;;;4.05;;
32146;SDS011;32190;49.112;8.598;2023-02-15T13:36:19;4.30;;;3.90;;
32146;SDS011;32190;49.112;8.598;2023-02-15T13:42:23;3.95;;;3.53;;
32146;SDS011;32190;49.112;8.598;2023-02-15T13:48:30;5.50;;;4.28;;
32146;SDS011;32190;49.112;8.598;2023-02-15T13:54:33;5.57;;;4.65;;
32146;SDS011;32190;49.112;8.598;2023-02-15T14:19:44;8.82;;;6.43;;
32146;SDS011;32190;49.112;8.598;2023-02-15T14:25:48;7.35;;;6.00;;
32146;SDS011;32190;49.112;8.598;2023-02-15T14:31:45;6.93;;;5.40;;
32146;SDS011;32190;49.112;8.598;2023-02-15T14:56:27;7.60;;;5.40;;
32146;SDS011;32190;49.112;8.598;2023-02-15T15:02:25;6.28;;;4.90;;
32146;SDS011;32190;49.112;8.598;2023-02-15T15:08:25;10.23;;;7.22;;
32146;SDS011;32190;49.112;8.598;2023-02-15T15:26:31;6.57;;;5.32;;
32146;SDS011;32190;49.112;8.598;2023-02-15T15:32:30;7.25;;;5.38;;
32146;SDS011;32190;49.112;8.598;2023-02-15T15:50:33;6.63;;;5.35;;
32146;SDS011;32190;49.112;8.598;2023-02-15T15:56:26;5.70;;;5.10;;
32146;SDS011;32190;49.112;8.598;2023-02-15T16:02:21;5.43;;;4.82;;
32146;SDS011;32190;49.112;8.598;2023-02-15T16:08:13;6.20;;;5.10;;
32146;SDS011;32190;49.112;8.598;2023-02-15T16:14:16;5.07;;;4.43;;
32146;SDS011;32190;49.112;8.598;2023-02-15T16:20:33;5.15;;;4.63;;
32146;SDS011;32190;49.112;8.598;2023-02-15T16:26:45;4.75;;;4.22;;
32146;SDS011;32190;49.112;8.598;2023-02-15T16:33:03;4.38;;;3.67;;
32146;SDS011;32190;49.112;8.598;2023-02-15T16:39:09;5.40;;;3.85;;
32146;SDS011;32190;49.112;8.598;2023-02-15T16:45:08;5.50;;;4.22;;
32146;SDS011;32190;49.112;8.598;2023-02-15T16:51:04;5.07;;;3.90;;
32146;SDS011;32190;49.112;8.598;2023-02-15T16:56:55;6.63;;;4.88;;
32146;SDS011;32190;49.112;8.598;2023-02-15T17:02:53;5.30;;;4.15;;
32146;SDS011;32190;49.112;8.598;2023-02-15T17:08:44;6.57;;;4.60;;
32146;SDS011;32190;49.112;8.598;2023-02-15T17:14:37;5.30;;;4.22;;
32146;SDS011;32190;49.112;8.598;2023-02-15T17:20:32;4.38;;;3.95;;
32146;SDS011;32190;49.112;8.598;2023-02-15T17:26:24;4.30;;;3.88;;
32146;SDS011;32190;49.112;8.598;2023-02-15T17:32:23;4.43;;;3.78;;
32146;SDS011;32190;49.112;8.598;2023-02-15T17:38:18;5.03;;;3.80;;
32146;SDS011;32190;49.112;8.598;2023-02-15T17:44:10;4.70;;;4.03;;
32146;SDS011;32190;49.112;8.598;2023-02-15T17:50:04;5.07;;;4.25;;
32146;SDS011;32190;49.112;8.598;2023-02-15T17:55:56;5.25;;;4.13;;
32146;SDS011;32190;49.112;8.598;2023-02-15T18:01:47;5.05;;;4.18;;
32146;SDS011;32190;49.112;8.598;2023-02-15T18:07:57;5.25;;;4.15;;
32146;SDS011;32190;49.112;8.598;2023-02-15T18:14:07;6.50;;;4.30;;
32146;SDS011;32190;49.112;8.598;2023-02-15T18:19:59;5.10;;;3.88;;
32146;SDS011;32190;49.112;8.598;2023-02-15T18:25:54;4.90;;;3.88;;
32146;SDS011;32190;49.112;8.598;2023-02-15T18:31:45;5.75;;;4.20;;
32146;SDS011;32190;49.112;8.598;2023-02-15T18:37:38;4.75;;;3.88;;
32146;SDS011;32190;49.112;8.598;2023-02-15T18:43:29;4.50;;;3.63;;
32146;SDS011;32190;49.112;8.598;2023-02-15T18:49:19;5.68;;;4.30;;
32146;SDS011;32190;49.112;8.598;2023-02-15T18:55:20;4.82;;;4.13;;
32146;SDS011;32190;49.112;8.598;2023-02-15T19:01:13;4.55;;;4.15;;
32146;SDS011;32190;49.112;8.598;2023-02-15T19:07:09;3.58;;;3.28;;
32146;SDS011;32190;49.112;8.598;2023-02-15T19:13:11;4.57;;;4.10;;
32146;SDS011;32190;49.112;8.598;2023-02-15T19:19:02;4.60;;;3.70;;
32146;SDS011;32190;49.112;8.598;2023-02-15T19:24:53;4.57;;;3.97;;
32146;SDS011;32190;49.112;8.598;2023-02-15T19:30:45;3.72;;;3.33;;
32146;SDS011;32190;49.112;8.598;2023-02-15T19:36:36;4.80;;;3.75;;
32146;SDS011;32190;49.112;8.598;2023-02-15T19:42:27;4.78;;;4.25;;
32146;SDS011;32190;49.112;8.598;2023-02-15T19:48:18;5.07;;;4.03;;
32146;SDS011;32190;49.112;8.598;2023-02-15T19:54:28;4.47;;;3.97;;
32146;SDS011;32190;49.112;8.598;2023-02-15T20:00:21;4.45;;;3.72;;
32146;SDS011;32190;49.112;8.598;2023-02-15T20:06:22;6.47;;;3.88;;
32146;SDS011;32190;49.112;8.598;2023-02-15T20:12:20;5.20;;;4.13;;
32146;SDS011;32190;49.112;8.598;2023-02-15T20:18:15;4.78;;;3.92;;
32146;SDS011;32190;49.112;8.598;2023-02-15T20:24:06;4.07;;;3.55;;
32146;SDS011;32190;49.112;8.598;2023-02-15T20:30:12;4.13;;;3.50;;
32146;SDS011;32190;49.112;8.598;2023-02-15T20:36:05;3.95;;;2.97;;
32146;SDS011;32190;49.112;8.598;2023-02-15T20:41:55;3.95;;;3.53;;
32146;SDS011;32190;49.112;8.598;2023-02-15T20:47:47;4.03;;;3.63;;
32146;SDS011;32190;49.112;8.598;2023-02-15T20:53:38;4.18;;;3.55;;
32146;SDS011;32190;49.112;8.598;2023-02-15T21:05:47;4.57;;;3.40;;
32146;SDS011;32190;49.112;8.598;2023-02-15T21:11:42;5.10;;;3.70;;
32146;SDS011;32190;49.112;8.598;2023-02-15T21:17:33;3.58;;;3.13;;
32146;SDS011;32190;49.112;8.598;2023-02-15T21:23:34;5.47;;;3.75;;
32146;SDS011;32190;49.112;8.598;2023-02-15T21:29:29;4.70;;;3.70;;
32146;SDS011;32190;49.112;8.598;2023-02-15T21:35:20;5.13;;;4.13;;
32146;SDS011;32190;49.112;8.598;2023-02-15T21:41:15;5.45;;;3.92;;
32146;SDS011;32190;49.112;8.598;2023-02-15T21:47:28;5.97;;;4.38;;
32146;SDS011;32190;49.112;8.598;2023-02-15T21:53:39;5.47;;;3.78;;
32146;SDS011;32190;49.112;8.598;2023-02-15T21:59:32;4.93;;;3.95;;
32146;SDS011;32190;49.112;8.598;2023-02-15T22:05:24;4.20;;;3.42;;
32146;SDS011;32190;49.112;8.598;2023-02-15T22:11:18;6.20;;;4.45;;
32146;SDS011;32190;49.112;8.598;2023-02-15T22:17:18;5.03;;;3.88;;
32146;SDS011;32190;49.112;8.598;2023-02-15T22:23:10;4.25;;;3.83;;
32146;SDS011;32190;49.112;8.598;2023-02-15T22:29:01;5.68;;;4.60;;
32146;SDS011;32190;49.112;8.598;2023-02-15T22:34:52;5.45;;;4.22;;
32146;SDS011;32190;49.112;8.598;2023-02-15T22:40:43;6.38;;;4.35;;
32146;SDS011;32190;49.112;8.598;2023-02-15T22:46:34;5.50;;;4.38;;
32146;SDS011;32190;49.112;8.598;2023-02-15T22:52:27;5.75;;;4.10;;
32146;SDS011;32190;49.112;8.598;2023-02-15T22:58:19;6.03;;;4.15;;
32146;SDS011;32190;49.112;8.598;2023-02-15T23:04:18;8.85;;;5.72;;
32146;SDS011;32190;49.112;8.598;2023-02-15T23:10:15;6.80;;;4.78;;
32146;SDS011;32190;49.112;8.598;2023-02-15T23:16:13;5.90;;;4.50;;
32146;SDS011;32190;49.112;8.598;2023-02-15T23:22:08;10.00;;;5.70;;
32146;SDS011;32190;49.112;8.598;2023-02-15T23:28:18;8.30;;;5.13;;
32146;SDS011;32190;49.112;8.598;2023-02-15T23:34:15;6.82;;;5.32;;
32146;SDS011;32190;49.112;8.598;2023-02-15T23:40:18;6.07;;;4.35;;
32146;SDS011;32190;49.112;8.598;2023-02-15T23:46:38;6.88;;;5.07;;
32146;SDS011;32190;49.112;8.598;2023-02-15T23:52:30;7.00;;;5.13;;
32146;SDS011;32190;49.112;8.598;2023-02-15T23:58:32;6.78;;;5.15;;
